sensor_id;sensor_type;location;lat;lon;timestamp;temperature;humidity
2893;DHT22;1456;51.840;12.184;2022-11-15T00:01:47;4.40;99.90
2893;DHT22;1456;51.840;12.184;2022-11-15T00:04:15;4.30;99.90
2893;DHT22;1456;51.840;12.184;2022-11-15T00:06:41;4.30;99.90
2893;DHT22;1456;51.840;12.184;2022-11-15T00:09:11;4.30;99.90
2893;DHT22;1456;51.840;12.184;2022-11-15T00:11:37;4.30;99.90
2893;DHT22;1456;51.840;12.184;2022-11-15T00:14:09;4.20;99.90
2893;DHT22;1456;51.840;12.184;2022-11-15T00:16:35;4.30;99.90
2893;DHT22;1456;51.840;12.184;2022-11-15T00:19:04;4.30;99.90
2893;DHT22;1456;51.840;12.184;2022-11-15T00:21:34;4.30;99.90
2893;DHT22;1456;51.840;12.184;2022-11-15T00:24:01;4.40;99.90
2893;DHT22;1456;51.840;12.184;2022-11-15T00:26:27;4.50;99.90
2893;DHT22;1456;51.840;12.184;2022-11-15T00:28:59;4.60;99.90
2893;DHT22;1456;51.840;12.184;2022-11-15T00:31:35;4.70;99.90
2893;DHT22;1456;51.840;12.184;2022-11-15T00:34:01;4.80;99.90
2893;DHT22;1456;51.840;12.184;2022-11-15T00:36:27;4.80;99.90
2893;DHT22;1456;51.840;12.184;2022-11-15T00:38:54;4.80;99.90
2893;DHT22;1456;51.840;12.184;2022-11-15T00:41:19;4.90;99.90
2893;DHT22;1456;51.840;12.184;2022-11-15T00:43:46;4.90;99.90
2893;DHT22;1456;51.840;12.184;2022-11-15T00:46:22;4.90;99.90
2893;DHT22;1456;51.840;12.184;2022-11-15T00:48:51;5.00;99.90
2893;DHT22;1456;51.840;12.184;2022-11-15T00:51:17;5.00;99.90
2893;DHT22;1456;51.840;12.184;2022-11-15T00:53:42;5.00;99.90
2893;DHT22;1456;51.840;12.184;2022-11-15T00:56:08;5.10;99.90
2893;DHT22;1456;51.840;12.184;2022-11-15T00:58:36;5.10;99.90
2893;DHT22;1456;51.840;12.184;2022-11-15T01:01:09;5.20;99.90
2893;DHT22;1456;51.840;12.184;2022-11-15T01:03:41;5.20;99.90
2893;DHT22;1456;51.840;12.184;2022-11-15T01:06:10;5.10;99.90
2893;DHT22;1456;51.840;12.184;2022-11-15T01:08:39;5.10;99.90
2893;DHT22;1456;51.840;12.184;2022-11-15T01:11:08;5.10;99.90
2893;DHT22;1456;51.840;12.184;2022-11-15T01:13:37;5.10;99.90
2893;DHT22;1456;51.840;12.184;2022-11-15T01:16:12;5.10;99.90
2893;DHT22;1456;51.840;12.184;2022-11-15T01:18:38;5.10;99.90
2893;DHT22;1456;51.840;12.184;2022-11-15T01:21:16;5.10;99.90
2893;DHT22;1456;51.840;12.184;2022-11-15T01:23:43;5.20;99.90
2893;DHT22;1456;51.840;12.184;2022-11-15T01:26:13;5.30;99.90
2893;DHT22;1456;51.840;12.184;2022-11-15T01:28:44;5.30;99.90
2893;DHT22;1456;51.840;12.184;2022-11-15T01:31:20;5.30;99.90
2893;DHT22;1456;51.840;12.184;2022-11-15T01:33:52;5.30;99.90
2893;DHT22;1456;51.840;12.184;2022-11-15T01:36:20;5.30;99.90
2893;DHT22;1456;51.840;12.184;2022-11-15T01:39:07;5.30;99.90
2893;DHT22;1456;51.840;12.184;2022-11-15T01:41:33;5.30;99.90
2893;DHT22;1456;51.840;12.184;2022-11-15T01:46:57;5.30;99.90
2893;DHT22;1456;51.840;12.184;2022-11-15T01:50:03;5.30;99.90
2893;DHT22;1456;51.840;12.184;2022-11-15T01:52:32;5.30;99.90
2893;DHT22;1456;51.840;12.184;2022-11-15T01:57:28;5.30;99.90
2893;DHT22;1456;51.840;12.184;2022-11-15T01:59:55;5.40;99.90
2893;DHT22;1456;51.840;12.184;2022-11-15T02:02:28;5.30;99.90
2893;DHT22;1456;51.840;12.184;2022-11-15T02:04:54;5.40;99.90
2893;DHT22;1456;51.840;12.184;2022-11-15T02:07:22;5.40;99.90
2893;DHT22;1456;51.840;12.184;2022-11-15T02:10:08;5.40;99.90
2893;DHT22;1456;51.840;12.184;2022-11-15T02:12:38;5.30;99.90
2893;DHT22;1456;51.840;12.184;2022-11-15T02:15:05;5.30;99.90
2893;DHT22;1456;51.840;12.184;2022-11-15T02:17:48;5.30;99.90
2893;DHT22;1456;51.840;12.184;2022-11-15T02:31:26;5.30;99.90
2893;DHT22;1456;51.840;12.184;2022-11-15T02:39:53;5.30;99.90
2893;DHT22;1456;51.840;12.184;2022-11-15T02:42:28;5.30;99.90
2893;DHT22;1456;51.840;12.184;2022-11-15T02:45:30;5.40;99.90
2893;DHT22;1456;51.840;12.184;2022-11-15T02:48:03;5.40;99.90
2893;DHT22;1456;51.840;12.184;2022-11-15T02:50:31;5.40;99.90
2893;DHT22;1456;51.840;12.184;2022-11-15T02:52:58;5.40;99.90
2893;DHT22;1456;51.840;12.184;2022-11-15T02:55:36;5.40;99.90
2893;DHT22;1456;51.840;12.184;2022-11-15T03:10:26;5.40;99.90
2893;DHT22;1456;51.840;12.184;2022-11-15T03:15:54;5.30;99.90
2893;DHT22;1456;51.840;12.184;2022-11-15T03:18:29;5.30;99.90
2893;DHT22;1456;51.840;12.184;2022-11-15T03:21:00;5.30;99.90
2893;DHT22;1456;51.840;12.184;2022-11-15T03:23:30;5.20;99.90
2893;DHT22;1456;51.840;12.184;2022-11-15T03:25:59;5.30;99.90
2893;DHT22;1456;51.840;12.184;2022-11-15T03:28:34;5.30;99.90
2893;DHT22;1456;51.840;12.184;2022-11-15T03:31:06;5.30;99.90
2893;DHT22;1456;51.840;12.184;2022-11-15T03:33:54;5.30;99.90
2893;DHT22;1456;51.840;12.184;2022-11-15T03:36:31;5.40;99.90
2893;DHT22;1456;51.840;12.184;2022-11-15T03:39:02;5.40;99.90
2893;DHT22;1456;51.840;12.184;2022-11-15T03:44:34;5.30;99.90
2893;DHT22;1456;51.840;12.184;2022-11-15T03:47:57;5.20;99.90
2893;DHT22;1456;51.840;12.184;2022-11-15T03:53:20;5.00;99.90
2893;DHT22;1456;51.840;12.184;2022-11-15T03:55:48;5.00;99.90
2893;DHT22;1456;51.840;12.184;2022-11-15T03:58:15;5.00;99.90
2893;DHT22;1456;51.840;12.184;2022-11-15T04:00:40;5.00;99.90
2893;DHT22;1456;51.840;12.184;2022-11-15T04:03:13;5.00;99.90
2893;DHT22;1456;51.840;12.184;2022-11-15T04:05:39;5.10;99.90
2893;DHT22;1456;51.840;12.184;2022-11-15T04:08:04;5.10;99.90
2893;DHT22;1456;51.840;12.184;2022-11-15T04:10:30;5.20;99.90
2893;DHT22;1456;51.840;12.184;2022-11-15T04:13:02;5.20;99.90
2893;DHT22;1456;51.840;12.184;2022-11-15T04:15:28;5.20;99.90
2893;DHT22;1456;51.840;12.184;2022-11-15T04:17:56;5.30;99.90
2893;DHT22;1456;51.840;12.184;2022-11-15T04:20:30;5.30;99.90
2893;DHT22;1456;51.840;12.184;2022-11-15T04:23:20;5.30;99.90
2893;DHT22;1456;51.840;12.184;2022-11-15T04:26:18;5.30;99.90
2893;DHT22;1456;51.840;12.184;2022-11-15T04:28:50;5.20;99.90
2893;DHT22;1456;51.840;12.184;2022-11-15T04:31:35;5.10;99.90
2893;DHT22;1456;51.840;12.184;2022-11-15T04:34:02;5.00;99.90
2893;DHT22;1456;51.840;12.184;2022-11-15T04:36:27;4.90;99.90
2893;DHT22;1456;51.840;12.184;2022-11-15T04:39:11;4.90;99.90
2893;DHT22;1456;51.840;12.184;2022-11-15T04:41:47;4.90;99.90
2893;DHT22;1456;51.840;12.184;2022-11-15T04:44:15;5.00;99.90
2893;DHT22;1456;51.840;12.184;2022-11-15T04:46:42;5.00;99.90
2893;DHT22;1456;51.840;12.184;2022-11-15T04:49:22;5.10;99.90
2893;DHT22;1456;51.840;12.184;2022-11-15T04:51:53;5.00;99.90
2893;DHT22;1456;51.840;12.184;2022-11-15T04:54:20;5.00;99.90
2893;DHT22;1456;51.840;12.184;2022-11-15T04:56:45;5.10;99.90
2893;DHT22;1456;51.840;12.184;2022-11-15T04:59:22;5.00;99.90
2893;DHT22;1456;51.840;12.184;2022-11-15T05:01:48;5.00;99.90
2893;DHT22;1456;51.840;12.184;2022-11-15T05:04:15;5.00;99.90
2893;DHT22;1456;51.840;12.184;2022-11-15T05:06:51;5.00;99.90
2893;DHT22;1456;51.840;12.184;2022-11-15T05:09:21;5.00;99.90
2893;DHT22;1456;51.840;12.184;2022-11-15T05:11:48;5.00;99.90
2893;DHT22;1456;51.840;12.184;2022-11-15T05:14:18;4.90;99.90
2893;DHT22;1456;51.840;12.184;2022-11-15T05:16:47;4.90;99.90
2893;DHT22;1456;51.840;12.184;2022-11-15T05:19:24;4.90;99.90
2893;DHT22;1456;51.840;12.184;2022-11-15T05:21:51;4.80;99.90
2893;DHT22;1456;51.840;12.184;2022-11-15T05:24:17;4.70;99.90
2893;DHT22;1456;51.840;12.184;2022-11-15T05:26:44;4.70;99.90
2893;DHT22;1456;51.840;12.184;2022-11-15T05:29:12;4.80;99.90
2893;DHT22;1456;51.840;12.184;2022-11-15T05:31:40;4.80;99.90
2893;DHT22;1456;51.840;12.184;2022-11-15T05:34:09;4.80;99.90
2893;DHT22;1456;51.840;12.184;2022-11-15T05:36:41;4.90;99.90
2893;DHT22;1456;51.840;12.184;2022-11-15T05:39:13;4.90;99.90
2893;DHT22;1456;51.840;12.184;2022-11-15T05:41:52;4.90;99.90
2893;DHT22;1456;51.840;12.184;2022-11-15T05:44:21;4.80;99.90
2893;DHT22;1456;51.840;12.184;2022-11-15T05:46:48;4.80;99.90
2893;DHT22;1456;51.840;12.184;2022-11-15T05:49:21;4.80;99.90
2893;DHT22;1456;51.840;12.184;2022-11-15T05:51:49;4.70;99.90
2893;DHT22;1456;51.840;12.184;2022-11-15T05:54:16;4.70;99.90
2893;DHT22;1456;51.840;12.184;2022-11-15T05:56:43;4.70;99.90
2893;DHT22;1456;51.840;12.184;2022-11-15T05:59:11;4.70;99.90
2893;DHT22;1456;51.840;12.184;2022-11-15T06:01:38;4.70;99.90
2893;DHT22;1456;51.840;12.184;2022-11-15T06:04:04;4.70;99.90
2893;DHT22;1456;51.840;12.184;2022-11-15T06:06:34;4.80;99.90
2893;DHT22;1456;51.840;12.184;2022-11-15T06:09:02;4.60;99.90
2893;DHT22;1456;51.840;12.184;2022-11-15T06:11:29;4.50;99.90
2893;DHT22;1456;51.840;12.184;2022-11-15T06:13:56;4.60;99.90
2893;DHT22;1456;51.840;12.184;2022-11-15T06:16:23;4.70;99.90
2893;DHT22;1456;51.840;12.184;2022-11-15T06:18:49;4.70;99.90
2893;DHT22;1456;51.840;12.184;2022-11-15T06:21:17;4.80;99.90
2893;DHT22;1456;51.840;12.184;2022-11-15T06:23:46;4.70;99.90
2893;DHT22;1456;51.840;12.184;2022-11-15T06:26:16;4.80;99.90
2893;DHT22;1456;51.840;12.184;2022-11-15T06:28:42;4.80;99.90
2893;DHT22;1456;51.840;12.184;2022-11-15T06:31:12;4.80;99.90
2893;DHT22;1456;51.840;12.184;2022-11-15T06:33:39;4.80;99.90
2893;DHT22;1456;51.840;12.184;2022-11-15T06:36:07;4.70;99.90
2893;DHT22;1456;51.840;12.184;2022-11-15T06:38:36;4.60;99.90
2893;DHT22;1456;51.840;12.184;2022-11-15T06:41:08;4.50;99.90
2893;DHT22;1456;51.840;12.184;2022-11-15T06:43:41;4.60;99.90
2893;DHT22;1456;51.840;12.184;2022-11-15T06:46:08;4.70;99.90
2893;DHT22;1456;51.840;12.184;2022-11-15T06:48:35;4.70;99.90
2893;DHT22;1456;51.840;12.184;2022-11-15T06:51:02;4.90;99.90
2893;DHT22;1456;51.840;12.184;2022-11-15T06:53:31;4.80;99.90
2893;DHT22;1456;51.840;12.184;2022-11-15T06:56:10;4.90;99.90
2893;DHT22;1456;51.840;12.184;2022-11-15T06:58:38;5.00;99.90
2893;DHT22;1456;51.840;12.184;2022-11-15T07:01:07;5.10;99.90
2893;DHT22;1456;51.840;12.184;2022-11-15T07:03:41;5.20;99.90
2893;DHT22;1456;51.840;12.184;2022-11-15T07:06:09;5.40;99.90
2893;DHT22;1456;51.840;12.184;2022-11-15T07:08:38;5.40;99.90
2893;DHT22;1456;51.840;12.184;2022-11-15T07:11:08;5.50;99.90
2893;DHT22;1456;51.840;12.184;2022-11-15T07:13:35;5.60;99.90
2893;DHT22;1456;51.840;12.184;2022-11-15T07:16:07;5.70;99.90
2893;DHT22;1456;51.840;12.184;2022-11-15T07:18:35;5.90;99.90
2893;DHT22;1456;51.840;12.184;2022-11-15T07:21:05;5.90;99.90
2893;DHT22;1456;51.840;12.184;2022-11-15T07:23:38;5.90;99.90
2893;DHT22;1456;51.840;12.184;2022-11-15T07:26:15;6.00;99.90
2893;DHT22;1456;51.840;12.184;2022-11-15T07:28:41;6.10;99.90
2893;DHT22;1456;51.840;12.184;2022-11-15T07:31:08;6.20;99.90
2893;DHT22;1456;51.840;12.184;2022-11-15T07:33:37;6.30;99.90
2893;DHT22;1456;51.840;12.184;2022-11-15T07:36:08;6.40;99.90
2893;DHT22;1456;51.840;12.184;2022-11-15T07:38:34;6.50;99.90
2893;DHT22;1456;51.840;12.184;2022-11-15T07:41:05;6.60;99.90
2893;DHT22;1456;51.840;12.184;2022-11-15T07:43:34;6.70;99.90
2893;DHT22;1456;51.840;12.184;2022-11-15T07:46:07;6.70;99.90
2893;DHT22;1456;51.840;12.184;2022-11-15T07:48:35;6.70;99.90
2893;DHT22;1456;51.840;12.184;2022-11-15T07:51:05;6.70;99.90
2893;DHT22;1456;51.840;12.184;2022-11-15T07:53:31;6.80;99.90
2893;DHT22;1456;51.840;12.184;2022-11-15T07:56:00;6.90;99.90
2893;DHT22;1456;51.840;12.184;2022-11-15T07:58:28;6.90;99.90
2893;DHT22;1456;51.840;12.184;2022-11-15T08:00:54;6.90;99.90
2893;DHT22;1456;51.840;12.184;2022-11-15T08:03:19;6.90;99.90
2893;DHT22;1456;51.840;12.184;2022-11-15T08:05:50;7.00;99.90
2893;DHT22;1456;51.840;12.184;2022-11-15T08:08:20;7.10;99.90
2893;DHT22;1456;51.840;12.184;2022-11-15T08:10:46;7.00;99.90
2893;DHT22;1456;51.840;12.184;2022-11-15T08:13:20;7.30;99.90
2893;DHT22;1456;51.840;12.184;2022-11-15T08:15:47;7.40;99.90
2893;DHT22;1456;51.840;12.184;2022-11-15T08:18:14;7.60;99.90
2893;DHT22;1456;51.840;12.184;2022-11-15T08:20:41;7.70;99.90
2893;DHT22;1456;51.840;12.184;2022-11-15T08:23:11;7.70;99.90
2893;DHT22;1456;51.840;12.184;2022-11-15T08:25:37;8.00;99.90
2893;DHT22;1456;51.840;12.184;2022-11-15T08:28:05;8.20;99.90
2893;DHT22;1456;51.840;12.184;2022-11-15T08:30:35;8.30;99.90
2893;DHT22;1456;51.840;12.184;2022-11-15T08:33:03;8.50;99.90
2893;DHT22;1456;51.840;12.184;2022-11-15T08:35:31;8.60;99.90
2893;DHT22;1456;51.840;12.184;2022-11-15T08:38:01;8.60;99.90
2893;DHT22;1456;51.840;12.184;2022-11-15T08:40:33;8.60;99.90
2893;DHT22;1456;51.840;12.184;2022-11-15T08:43:06;8.70;99.90
2893;DHT22;1456;51.840;12.184;2022-11-15T08:45:34;8.80;99.90
2893;DHT22;1456;51.840;12.184;2022-11-15T08:48:14;8.90;99.90
2893;DHT22;1456;51.840;12.184;2022-11-15T08:50:41;9.00;99.90
2893;DHT22;1456;51.840;12.184;2022-11-15T08:53:19;9.00;99.90
2893;DHT22;1456;51.840;12.184;2022-11-15T08:55:46;9.00;99.90
2893;DHT22;1456;51.840;12.184;2022-11-15T08:58:13;9.10;99.90
2893;DHT22;1456;51.840;12.184;2022-11-15T09:00:40;9.20;99.90
2893;DHT22;1456;51.840;12.184;2022-11-15T09:03:15;9.30;99.90
2893;DHT22;1456;51.840;12.184;2022-11-15T09:06:11;9.40;99.90
2893;DHT22;1456;51.840;12.184;2022-11-15T09:08:40;9.60;99.90
2893;DHT22;1456;51.840;12.184;2022-11-15T09:11:09;9.60;99.90
2893;DHT22;1456;51.840;12.184;2022-11-15T09:13:35;9.70;99.90
2893;DHT22;1456;51.840;12.184;2022-11-15T09:16:03;9.80;99.90
2893;DHT22;1456;51.840;12.184;2022-11-15T09:18:31;9.90;99.90
2893;DHT22;1456;51.840;12.184;2022-11-15T09:21:05;10.10;99.90
2893;DHT22;1456;51.840;12.184;2022-11-15T09:23:41;10.30;99.90
2893;DHT22;1456;51.840;12.184;2022-11-15T09:26:07;10.40;99.90
2893;DHT22;1456;51.840;12.184;2022-11-15T09:28:33;10.50;99.90
2893;DHT22;1456;51.840;12.184;2022-11-15T09:31:03;10.50;99.90
2893;DHT22;1456;51.840;12.184;2022-11-15T09:33:29;10.60;99.90
2893;DHT22;1456;51.840;12.184;2022-11-15T09:36:00;10.80;99.90
2893;DHT22;1456;51.840;12.184;2022-11-15T09:38:27;11.00;99.90
2893;DHT22;1456;51.840;12.184;2022-11-15T09:41:23;11.10;99.90
2893;DHT22;1456;51.840;12.184;2022-11-15T09:46:46;11.50;99.90
2893;DHT22;1456;51.840;12.184;2022-11-15T09:49:19;11.60;99.90
2893;DHT22;1456;51.840;12.184;2022-11-15T09:51:49;11.60;99.90
2893;DHT22;1456;51.840;12.184;2022-11-15T09:54:31;11.70;99.90
2893;DHT22;1456;51.840;12.184;2022-11-15T09:59:51;12.00;99.90
2893;DHT22;1456;51.840;12.184;2022-11-15T10:05:14;12.00;99.90
2893;DHT22;1456;51.840;12.184;2022-11-15T10:10:44;12.20;99.90
2893;DHT22;1456;51.840;12.184;2022-11-15T10:13:32;12.30;99.90
2893;DHT22;1456;51.840;12.184;2022-11-15T10:22:21;12.50;99.90
2893;DHT22;1456;51.840;12.184;2022-11-15T10:24:50;12.50;99.90
2893;DHT22;1456;51.840;12.184;2022-11-15T10:27:19;12.50;99.90
2893;DHT22;1456;51.840;12.184;2022-11-15T10:29:50;12.60;99.90
2893;DHT22;1456;51.840;12.184;2022-11-15T10:32:21;12.70;99.90
2893;DHT22;1456;51.840;12.184;2022-11-15T10:34:49;12.80;99.90
2893;DHT22;1456;51.840;12.184;2022-11-15T10:37:38;12.90;99.90
2893;DHT22;1456;51.840;12.184;2022-11-15T10:40:17;13.10;99.90
2893;DHT22;1456;51.840;12.184;2022-11-15T10:42:43;13.10;99.90
2893;DHT22;1456;51.840;12.184;2022-11-15T10:45:31;13.20;99.90
2893;DHT22;1456;51.840;12.184;2022-11-15T10:50:39;12.90;99.90
2893;DHT22;1456;51.840;12.184;2022-11-15T10:53:21;13.20;99.90
2893;DHT22;1456;51.840;12.184;2022-11-15T10:55:56;13.10;99.90
2893;DHT22;1456;51.840;12.184;2022-11-15T10:58:36;13.30;99.90
2893;DHT22;1456;51.840;12.184;2022-11-15T11:01:22;13.40;99.90
2893;DHT22;1456;51.840;12.184;2022-11-15T11:04:08;13.50;99.90
2893;DHT22;1456;51.840;12.184;2022-11-15T11:06:53;13.60;99.90
2893;DHT22;1456;51.840;12.184;2022-11-15T11:09:37;13.80;99.90
2893;DHT22;1456;51.840;12.184;2022-11-15T11:12:10;13.90;99.90
2893;DHT22;1456;51.840;12.184;2022-11-15T11:14:42;14.00;99.90
2893;DHT22;1456;51.840;12.184;2022-11-15T11:20:45;14.10;99.90
2893;DHT22;1456;51.840;12.184;2022-11-15T11:29:41;14.40;99.90
2893;DHT22;1456;51.840;12.184;2022-11-15T11:35:13;14.70;99.90
2893;DHT22;1456;51.840;12.184;2022-11-15T11:41:39;15.40;99.90
2893;DHT22;1456;51.840;12.184;2022-11-15T11:46:49;16.20;99.60
2893;DHT22;1456;51.840;12.184;2022-11-15T11:49:23;16.90;99.90
2893;DHT22;1456;51.840;12.184;2022-11-15T11:52:05;17.50;98.60
2893;DHT22;1456;51.840;12.184;2022-11-15T11:55:02;17.50;98.40
2893;DHT22;1456;51.840;12.184;2022-11-15T11:57:40;18.00;97.10
2893;DHT22;1456;51.840;12.184;2022-11-15T12:00:26;18.30;96.20
2893;DHT22;1456;51.840;12.184;2022-11-15T12:06:02;18.70;95.50
2893;DHT22;1456;51.840;12.184;2022-11-15T12:08:40;18.40;95.70
2893;DHT22;1456;51.840;12.184;2022-11-15T12:11:17;17.90;94.60
2893;DHT22;1456;51.840;12.184;2022-11-15T12:13:58;18.00;95.40
2893;DHT22;1456;51.840;12.184;2022-11-15T12:16:31;18.10;94.90
2893;DHT22;1456;51.840;12.184;2022-11-15T12:19:03;17.80;94.10
2893;DHT22;1456;51.840;12.184;2022-11-15T12:24:41;18.40;95.10
2893;DHT22;1456;51.840;12.184;2022-11-15T12:27:32;19.40;94.10
2893;DHT22;1456;51.840;12.184;2022-11-15T12:30:10;20.10;93.10
2893;DHT22;1456;51.840;12.184;2022-11-15T12:32:38;20.80;90.80
2893;DHT22;1456;51.840;12.184;2022-11-15T12:35:26;21.50;91.60
2893;DHT22;1456;51.840;12.184;2022-11-15T12:37:57;22.20;90.20
2893;DHT22;1456;51.840;12.184;2022-11-15T12:40:35;23.00;90.00
2893;DHT22;1456;51.840;12.184;2022-11-15T12:45:41;22.80;83.60
2893;DHT22;1456;51.840;12.184;2022-11-15T12:51:07;23.30;83.70
2893;DHT22;1456;51.840;12.184;2022-11-15T12:53:36;22.60;82.10
2893;DHT22;1456;51.840;12.184;2022-11-15T12:56:20;22.60;81.50
2893;DHT22;1456;51.840;12.184;2022-11-15T12:58:59;23.00;81.80
2893;DHT22;1456;51.840;12.184;2022-11-15T13:06:56;24.30;80.20
2893;DHT22;1456;51.840;12.184;2022-11-15T13:14:59;24.40;78.40
2893;DHT22;1456;51.840;12.184;2022-11-15T13:17:50;25.00;76.90
2893;DHT22;1456;51.840;12.184;2022-11-15T13:20:17;25.40;76.10
2893;DHT22;1456;51.840;12.184;2022-11-15T13:23:14;25.60;74.40
2893;DHT22;1456;51.840;12.184;2022-11-15T13:31:40;24.70;76.20
2893;DHT22;1456;51.840;12.184;2022-11-15T13:34:29;24.60;74.80
2893;DHT22;1456;51.840;12.184;2022-11-15T13:37:12;24.80;72.70
2893;DHT22;1456;51.840;12.184;2022-11-15T13:42:47;24.70;75.80
2893;DHT22;1456;51.840;12.184;2022-11-15T13:45:18;23.90;72.20
2893;DHT22;1456;51.840;12.184;2022-11-15T13:47:51;24.50;74.60
2893;DHT22;1456;51.840;12.184;2022-11-15T13:50:17;24.70;72.90
2893;DHT22;1456;51.840;12.184;2022-11-15T13:52:44;24.20;74.40
2893;DHT22;1456;51.840;12.184;2022-11-15T13:55:17;23.50;72.40
2893;DHT22;1456;51.840;12.184;2022-11-15T13:57:53;22.40;76.00
2893;DHT22;1456;51.840;12.184;2022-11-15T14:00:41;21.50;78.30
2893;DHT22;1456;51.840;12.184;2022-11-15T14:03:30;20.50;78.40
2893;DHT22;1456;51.840;12.184;2022-11-15T14:08:36;19.40;85.20
2893;DHT22;1456;51.840;12.184;2022-11-15T14:13:38;20.30;86.50
2893;DHT22;1456;51.840;12.184;2022-11-15T14:16:19;20.70;84.40
2893;DHT22;1456;51.840;12.184;2022-11-15T14:18:50;21.20;84.00
2893;DHT22;1456;51.840;12.184;2022-11-15T14:21:21;20.70;83.20
2893;DHT22;1456;51.840;12.184;2022-11-15T14:24:13;20.00;83.50
2893;DHT22;1456;51.840;12.184;2022-11-15T14:26:45;19.20;84.50
2893;DHT22;1456;51.840;12.184;2022-11-15T14:29:30;18.60;86.30
2893;DHT22;1456;51.840;12.184;2022-11-15T14:32:23;17.80;87.40
2893;DHT22;1456;51.840;12.184;2022-11-15T14:35:15;17.50;90.10
2893;DHT22;1456;51.840;12.184;2022-11-15T14:38:07;17.10;90.90
2893;DHT22;1456;51.840;12.184;2022-11-15T14:41:00;16.40;91.80
2893;DHT22;1456;51.840;12.184;2022-11-15T14:44:18;16.00;92.70
2893;DHT22;1456;51.840;12.184;2022-11-15T14:47:14;15.70;93.60
2893;DHT22;1456;51.840;12.184;2022-11-15T14:50:21;15.30;95.70
2893;DHT22;1456;51.840;12.184;2022-11-15T14:53:24;14.90;96.40
2893;DHT22;1456;51.840;12.184;2022-11-15T15:03:13;14.00;98.90
2893;DHT22;1456;51.840;12.184;2022-11-15T15:10:30;13.50;99.90
2893;DHT22;1456;51.840;12.184;2022-11-15T15:17:14;13.10;99.90
2893;DHT22;1456;51.840;12.184;2022-11-15T15:19:46;12.90;99.90
2893;DHT22;1456;51.840;12.184;2022-11-15T15:22:29;12.70;99.90
2893;DHT22;1456;51.840;12.184;2022-11-15T15:29:10;12.20;99.90
2893;DHT22;1456;51.840;12.184;2022-11-15T15:31:36;12.10;99.90
2893;DHT22;1456;51.840;12.184;2022-11-15T15:40:41;11.60;99.90
2893;DHT22;1456;51.840;12.184;2022-11-15T15:43:54;11.40;99.90
2893;DHT22;1456;51.840;12.184;2022-11-15T15:57:28;10.60;99.90
2893;DHT22;1456;51.840;12.184;2022-11-15T16:03:43;10.40;99.90
2893;DHT22;1456;51.840;12.184;2022-11-15T16:06:54;10.30;99.90
2893;DHT22;1456;51.840;12.184;2022-11-15T16:19:41;9.70;99.90
2893;DHT22;1456;51.840;12.184;2022-11-15T16:33:09;9.30;99.90
2893;DHT22;1456;51.840;12.184;2022-11-15T16:42:44;9.40;99.90
2893;DHT22;1456;51.840;12.184;2022-11-15T16:53:03;9.50;99.90
2893;DHT22;1456;51.840;12.184;2022-11-15T16:59:53;9.30;99.90
2893;DHT22;1456;51.840;12.184;2022-11-15T17:02:54;9.30;99.90
2893;DHT22;1456;51.840;12.184;2022-11-15T17:09:20;9.20;99.90
2893;DHT22;1456;51.840;12.184;2022-11-15T17:12:26;9.10;99.90
2893;DHT22;1456;51.840;12.184;2022-11-15T17:15:21;9.10;99.90
2893;DHT22;1456;51.840;12.184;2022-11-15T17:21:22;9.00;99.90
2893;DHT22;1456;51.840;12.184;2022-11-15T17:23:48;8.90;99.90
2893;DHT22;1456;51.840;12.184;2022-11-15T17:26:38;8.90;99.90
2893;DHT22;1456;51.840;12.184;2022-11-15T17:39:50;8.80;99.90
2893;DHT22;1456;51.840;12.184;2022-11-15T17:59:49;8.60;99.90
2893;DHT22;1456;51.840;12.184;2022-11-15T18:02:36;8.90;99.90
2893;DHT22;1456;51.840;12.184;2022-11-15T18:19:03;9.50;99.90
2893;DHT22;1456;51.840;12.184;2022-11-15T18:22:33;9.60;99.90
2893;DHT22;1456;51.840;12.184;2022-11-15T18:28:50;9.60;99.90
2893;DHT22;1456;51.840;12.184;2022-11-15T18:34:58;9.80;99.90
2893;DHT22;1456;51.840;12.184;2022-11-15T18:37:24;9.80;99.90
2893;DHT22;1456;51.840;12.184;2022-11-15T18:43:24;9.80;99.90
2893;DHT22;1456;51.840;12.184;2022-11-15T18:48:41;9.80;99.90
2893;DHT22;1456;51.840;12.184;2022-11-15T18:51:35;9.70;99.90
2893;DHT22;1456;51.840;12.184;2022-11-15T18:54:39;9.80;99.90
2893;DHT22;1456;51.840;12.184;2022-11-15T19:01:17;9.80;99.90
2893;DHT22;1456;51.840;12.184;2022-11-15T19:04:38;10.00;99.90
2893;DHT22;1456;51.840;12.184;2022-11-15T19:20:21;10.30;99.90
2893;DHT22;1456;51.840;12.184;2022-11-15T19:23:14;10.20;99.90
2893;DHT22;1456;51.840;12.184;2022-11-15T19:36:04;10.00;99.90
2893;DHT22;1456;51.840;12.184;2022-11-15T19:42:33;10.00;99.90
2893;DHT22;1456;51.840;12.184;2022-11-15T19:48:18;9.90;99.90
2893;DHT22;1456;51.840;12.184;2022-11-15T19:51:17;9.80;99.90
2893;DHT22;1456;51.840;12.184;2022-11-15T19:57:57;9.80;99.90
2893;DHT22;1456;51.840;12.184;2022-11-15T20:03:49;9.80;99.90
2893;DHT22;1456;51.840;12.184;2022-11-15T20:07:09;9.70;99.90
2893;DHT22;1456;51.840;12.184;2022-11-15T20:10:06;9.80;99.90
2893;DHT22;1456;51.840;12.184;2022-11-15T20:19:13;9.90;99.90
2893;DHT22;1456;51.840;12.184;2022-11-15T20:22:14;9.70;99.90
2893;DHT22;1456;51.840;12.184;2022-11-15T20:25:45;10.00;99.90
2893;DHT22;1456;51.840;12.184;2022-11-15T20:28:25;10.00;99.90
2893;DHT22;1456;51.840;12.184;2022-11-15T20:31:19;9.80;99.90
2893;DHT22;1456;51.840;12.184;2022-11-15T20:37:28;9.90;99.90
2893;DHT22;1456;51.840;12.184;2022-11-15T20:43:50;9.60;99.90
2893;DHT22;1456;51.840;12.184;2022-11-15T20:46:55;9.60;99.90
2893;DHT22;1456;51.840;12.184;2022-11-15T20:49:35;9.60;99.90
2893;DHT22;1456;51.840;12.184;2022-11-15T21:02:54;9.40;99.90
2893;DHT22;1456;51.840;12.184;2022-11-15T21:06:06;9.20;99.90
2893;DHT22;1456;51.840;12.184;2022-11-15T21:09:05;8.90;99.90
2893;DHT22;1456;51.840;12.184;2022-11-15T21:12:06;8.90;99.90
2893;DHT22;1456;51.840;12.184;2022-11-15T21:14:53;8.90;99.90
2893;DHT22;1456;51.840;12.184;2022-11-15T21:17:28;8.70;99.90
2893;DHT22;1456;51.840;12.184;2022-11-15T21:20:31;8.70;99.90
2893;DHT22;1456;51.840;12.184;2022-11-15T21:23:17;8.60;99.90
2893;DHT22;1456;51.840;12.184;2022-11-15T21:25:54;8.50;99.90
2893;DHT22;1456;51.840;12.184;2022-11-15T21:31:31;8.30;99.90
2893;DHT22;1456;51.840;12.184;2022-11-15T21:37:38;8.30;99.90
2893;DHT22;1456;51.840;12.184;2022-11-15T21:40:33;8.30;99.90
2893;DHT22;1456;51.840;12.184;2022-11-15T21:43:41;8.40;99.90
2893;DHT22;1456;51.840;12.184;2022-11-15T21:46:20;8.40;99.90
2893;DHT22;1456;51.840;12.184;2022-11-15T22:06:54;8.00;99.90
2893;DHT22;1456;51.840;12.184;2022-11-15T22:09:04;8.00;99.90
2893;DHT22;1456;51.840;12.184;2022-11-15T22:11:42;8.00;99.90
2893;DHT22;1456;51.840;12.184;2022-11-15T22:14:42;7.90;99.90
2893;DHT22;1456;51.840;12.184;2022-11-15T22:17:23;7.70;99.90
2893;DHT22;1456;51.840;12.184;2022-11-15T22:20:38;7.60;99.90
2893;DHT22;1456;51.840;12.184;2022-11-15T22:26:22;7.30;99.90
2893;DHT22;1456;51.840;12.184;2022-11-15T22:28:52;7.20;99.90
2893;DHT22;1456;51.840;12.184;2022-11-15T22:31:18;7.10;99.90
2893;DHT22;1456;51.840;12.184;2022-11-15T22:33:44;6.90;99.90
2893;DHT22;1456;51.840;12.184;2022-11-15T22:36:19;6.90;99.90
2893;DHT22;1456;51.840;12.184;2022-11-15T22:38:47;6.80;99.90
2893;DHT22;1456;51.840;12.184;2022-11-15T22:41:19;6.40;99.90
2893;DHT22;1456;51.840;12.184;2022-11-15T22:43:54;6.60;99.90
2893;DHT22;1456;51.840;12.184;2022-11-15T22:46:21;6.50;99.90
2893;DHT22;1456;51.840;12.184;2022-11-15T22:48:52;6.50;99.90